createdAt,value
2019-02-17T00:02:39.598Z,84.71
2019-02-17T00:05:47.181Z,84.86
2019-02-17T00:08:54.439Z,84.93
2019-02-17T00:12:01.713Z,84.91
2019-02-17T00:15:09.362Z,84.97
2019-02-17T00:18:16.968Z,85.13
2019-02-17T00:21:24.134Z,85.08
2019-02-17T00:24:31.757Z,85.36
2019-02-17T00:27:39.673Z,85.44
2019-02-17T00:30:46.962Z,85.36
2019-02-17T00:33:54.417Z,85.54
2019-02-17T00:37:01.605Z,85.36
2019-02-17T00:40:09.435Z,85.04
2019-02-17T00:43:16.703Z,84.75
2019-02-17T00:46:24.380Z,85.07
2019-02-17T00:49:31.919Z,85.71
2019-02-17T00:52:39.439Z,86.39
2019-02-17T00:55:47.164Z,86.67
2019-02-17T00:58:54.862Z,87.00
2019-02-17T01:02:02.148Z,87.46
2019-02-17T01:05:09.861Z,87.56
2019-02-17T01:08:17.445Z,87.70
2019-02-17T01:11:25.216Z,88.04
2019-02-17T01:14:32.708Z,88.50
2019-02-17T01:17:40.090Z,88.99
2019-02-17T01:20:48.148Z,89.05
2019-02-17T01:23:55.348Z,89.28
2019-02-17T01:27:03.102Z,89.42
2019-02-17T01:30:13.119Z,89.53
2019-02-17T01:33:20.375Z,89.80
2019-02-17T01:36:27.667Z,89.81
2019-02-17T01:39:35.460Z,89.43
2019-02-17T01:42:42.759Z,89.23
2019-02-17T01:45:50.316Z,89.86
2019-02-17T01:48:57.871Z,90.37
2019-02-17T01:52:05.029Z,90.44
2019-02-17T01:55:12.288Z,90.10
2019-02-17T01:58:19.930Z,89.74
2019-02-17T02:01:27.078Z,89.93
2019-02-17T02:04:34.519Z,90.05
2019-02-17T02:07:41.988Z,90.48
2019-02-17T02:10:49.582Z,90.70
2019-02-17T02:13:56.961Z,90.61
2019-02-17T02:17:04.342Z,90.71
2019-02-17T02:20:12.077Z,90.04
2019-02-17T02:23:19.237Z,90.37
2019-02-17T02:26:26.506Z,90.42
2019-02-17T02:29:40.768Z,89.87
2019-02-17T02:32:42.948Z,89.47
2019-02-17T02:35:50.234Z,88.91
2019-02-17T02:38:57.668Z,88.69
2019-02-17T02:42:05.258Z,87.65
2019-02-17T02:45:13.061Z,87.24
2019-02-17T02:48:20.871Z,87.43
2019-02-17T02:51:28.046Z,88.04
2019-02-17T02:54:35.546Z,88.01
2019-02-17T02:57:43.248Z,88.13
2019-02-17T03:00:50.746Z,88.13
2019-02-17T03:03:57.921Z,88.08
2019-02-17T03:07:08.548Z,87.57
2019-02-17T03:10:15.736Z,87.16
2019-02-17T03:13:23.210Z,87.23
2019-02-17T03:16:30.608Z,87.04
2019-02-17T03:19:38.183Z,86.72
2019-02-17T03:22:45.352Z,86.58
2019-02-17T03:25:52.867Z,86.12
2019-02-17T03:29:00.449Z,86.32
2019-02-17T03:32:07.610Z,86.41
2019-02-17T03:35:14.827Z,86.24
2019-02-17T03:38:22.241Z,86.63
2019-02-17T03:41:29.624Z,87.14
2019-02-17T03:44:37.844Z,87.53
2019-02-17T03:47:45.125Z,87.54
2019-02-17T03:50:52.301Z,87.53
2019-02-17T03:53:59.693Z,87.63
2019-02-17T03:57:07.631Z,87.78
2019-02-17T04:00:17.335Z,87.66
2019-02-17T04:03:24.556Z,87.93
2019-02-17T04:06:32.018Z,88.02
2019-02-17T04:09:39.595Z,87.99
2019-02-17T04:12:47.515Z,88.17
2019-02-17T04:15:54.981Z,88.38
2019-02-17T04:19:02.448Z,88.68
2019-02-17T04:22:09.845Z,88.76
2019-02-17T04:25:17.458Z,89.06
2019-02-17T04:28:25.081Z,89.12
2019-02-17T04:31:32.680Z,88.83
2019-02-17T04:34:40.199Z,88.95
2019-02-17T04:37:47.476Z,88.84
2019-02-17T04:40:54.880Z,88.65
2019-02-17T04:44:02.547Z,89.02
2019-02-17T04:47:10.059Z,88.97
2019-02-17T04:50:17.412Z,89.18
2019-02-17T04:53:24.805Z,89.62
2019-02-17T04:56:32.401Z,89.65
2019-02-17T04:59:39.787Z,89.93
2019-02-17T05:02:47.176Z,90.11
2019-02-17T05:05:54.890Z,90.25
2019-02-17T05:09:04.064Z,90.57
2019-02-17T05:12:11.486Z,90.81
2019-02-17T05:15:18.877Z,91.18
2019-02-17T05:18:26.314Z,91.44
2019-02-17T05:21:33.688Z,91.55
2019-02-17T05:24:41.235Z,91.47
2019-02-17T05:27:48.878Z,91.46
2019-02-17T05:30:56.800Z,91.01
2019-02-17T05:34:04.076Z,90.97
2019-02-17T05:37:11.627Z,90.84
2019-02-17T05:40:18.935Z,90.81
2019-02-17T05:43:26.378Z,90.60
2019-02-17T05:46:33.890Z,90.63
2019-02-17T05:49:41.069Z,90.30
2019-02-17T05:52:49.001Z,90.34
2019-02-17T05:55:56.405Z,90.38
2019-02-17T05:59:04.169Z,90.06
2019-02-17T06:02:11.339Z,90.10
2019-02-17T06:05:18.975Z,90.19
2019-02-17T06:08:27.064Z,90.39
2019-02-17T06:11:35.676Z,90.52
2019-02-17T06:14:43.293Z,90.99
2019-02-17T06:17:50.823Z,91.11
2019-02-17T06:20:58.550Z,91.37
2019-02-17T06:24:06.274Z,91.59
2019-02-17T06:27:13.901Z,91.68
2019-02-17T06:30:21.494Z,91.90
2019-02-17T06:33:28.666Z,91.73
2019-02-17T06:36:36.513Z,91.56
2019-02-17T06:39:43.927Z,91.56
2019-02-17T06:42:51.979Z,91.52
2019-02-17T06:46:00.558Z,91.41
2019-02-17T06:49:08.304Z,91.25
2019-02-17T06:52:15.889Z,91.48
2019-02-17T06:55:37.897Z,90.62
2019-02-17T06:58:45.390Z,90.98
2019-02-17T07:01:53.059Z,90.11
2019-02-17T07:05:06.369Z,90.00
2019-02-17T07:08:13.686Z,88.58
2019-02-17T07:11:23.388Z,87.91
2019-02-17T07:14:31.834Z,85.78
2019-02-17T07:17:41.052Z,82.67
2019-02-17T07:20:48.685Z,80.49
2019-02-17T07:23:56.158Z,76.54
2019-02-17T07:27:03.863Z,75.09
2019-02-17T07:30:11.604Z,72.57
2019-02-17T07:33:19.447Z,70.88
2019-02-17T07:36:26.999Z,71.33
2019-02-17T07:39:35.651Z,70.58
2019-02-17T07:42:43.732Z,70.54
2019-02-17T07:45:51.952Z,70.48
2019-02-17T07:48:59.435Z,70.47
2019-02-17T07:52:06.899Z,70.14
2019-02-17T07:55:14.604Z,69.25
2019-02-17T07:58:22.298Z,69.31
2019-02-17T08:01:29.857Z,69.60
2019-02-17T08:04:37.409Z,70.58
2019-02-17T08:07:44.889Z,72.27
2019-02-17T08:10:52.440Z,72.64
2019-02-17T08:13:59.806Z,71.94
2019-02-17T08:17:07.202Z,70.00
2019-02-17T08:20:14.888Z,69.93
2019-02-17T08:23:22.253Z,69.14
2019-02-17T08:26:29.819Z,69.95
2019-02-17T08:29:37.989Z,67.47
2019-02-17T08:32:45.704Z,68.38
2019-02-17T08:35:53.191Z,67.39
2019-02-17T08:39:00.966Z,68.13
2019-02-17T08:42:08.732Z,64.10
2019-02-17T08:45:16.086Z,64.08
2019-02-17T08:48:24.604Z,66.10
2019-02-17T08:51:32.396Z,66.77
2019-02-17T08:54:40.746Z,66.75
2019-02-17T08:57:48.122Z,64.71
2019-02-17T09:00:55.455Z,61.51
2019-02-17T09:04:03.007Z,59.76
2019-02-17T09:07:11.515Z,60.60
2019-02-17T09:10:20.139Z,63.14
2019-02-17T09:13:27.302Z,57.38
2019-02-17T09:16:35.030Z,53.38
2019-02-17T09:19:42.799Z,52.48
2019-02-17T09:22:50.303Z,50.45
2019-02-17T09:25:58.136Z,48.48
2019-02-17T09:29:05.858Z,48.67
2019-02-17T09:32:16.229Z,46.54
2019-02-17T09:35:22.772Z,48.19
2019-02-17T09:38:30.683Z,46.20
2019-02-17T09:41:37.878Z,46.32
2019-02-17T09:44:45.294Z,45.74
2019-02-17T09:47:53.629Z,45.06
2019-02-17T09:51:01.480Z,43.33
2019-02-17T09:54:09.332Z,42.25
2019-02-17T09:57:16.792Z,43.79
2019-02-17T10:00:24.074Z,40.58
2019-02-17T10:03:32.094Z,41.76
2019-02-17T10:06:40.893Z,42.50
2019-02-17T10:09:49.015Z,41.17
2019-02-17T10:12:56.759Z,39.87
2019-02-17T10:16:04.557Z,39.12
2019-02-17T10:19:11.940Z,40.99
2019-02-17T10:22:19.421Z,40.02
2019-02-17T10:25:27.170Z,41.60
2019-02-17T10:28:42.154Z,40.21
2019-02-17T10:31:44.889Z,39.80
2019-02-17T10:34:52.875Z,39.62
2019-02-17T10:38:00.154Z,39.42
2019-02-17T10:41:07.995Z,39.32
2019-02-17T10:44:16.083Z,39.63
2019-02-17T10:47:23.634Z,39.16
2019-02-17T10:50:30.905Z,39.55
2019-02-17T10:53:38.524Z,40.96
2019-02-17T10:56:45.702Z,39.32
2019-02-17T10:59:52.854Z,39.38
2019-02-17T11:03:07.170Z,39.00
2019-02-17T11:06:14.983Z,38.77
2019-02-17T11:09:23.040Z,39.32
2019-02-17T11:12:33.320Z,39.70
2019-02-17T11:15:40.901Z,40.05
2019-02-17T11:18:51.937Z,40.93
2019-02-17T11:21:59.827Z,36.69
2019-02-17T11:25:08.002Z,36.11
2019-02-17T11:28:15.950Z,36.23
2019-02-17T11:31:23.121Z,35.47
2019-02-17T11:34:30.972Z,34.81
2019-02-17T11:37:38.369Z,34.95
2019-02-17T11:40:46.237Z,33.70
2019-02-17T11:43:54.608Z,33.55
2019-02-17T11:47:02.698Z,33.37
2019-02-17T11:50:10.569Z,33.68
2019-02-17T11:53:19.032Z,33.74
2019-02-17T11:56:26.890Z,33.95
2019-02-17T11:59:35.239Z,34.11
2019-02-17T12:02:42.738Z,32.97
2019-02-17T12:05:50.658Z,32.34
2019-02-17T12:08:58.267Z,32.90
2019-02-17T12:12:06.139Z,32.84
2019-02-17T12:15:14.169Z,33.37
2019-02-17T12:18:22.124Z,35.77
2019-02-17T12:21:49.638Z,32.61
2019-02-17T12:25:03.159Z,32.45
2019-02-17T12:28:16.206Z,32.36
2019-02-17T12:31:27.493Z,34.81
2019-02-17T12:34:35.317Z,34.48
2019-02-17T12:37:43.497Z,34.70
2019-02-17T12:40:51.053Z,35.30
2019-02-17T12:43:58.806Z,33.64
2019-02-17T12:47:06.549Z,35.33
2019-02-17T12:50:14.299Z,34.78
2019-02-17T12:53:21.987Z,35.66
2019-02-17T12:56:29.842Z,35.71
2019-02-17T12:59:38.325Z,35.71
2019-02-17T13:02:47.144Z,36.65
2019-02-17T13:05:56.678Z,36.19
2019-02-17T13:09:07.092Z,36.10
2019-02-17T13:12:15.736Z,36.34
2019-02-17T13:15:24.069Z,35.72
2019-02-17T13:18:33.113Z,36.79
2019-02-17T13:21:44.870Z,37.23
2019-02-17T13:24:52.912Z,38.15
2019-02-17T13:28:01.115Z,37.53
2019-02-17T13:31:08.894Z,36.54
2019-02-17T13:34:16.949Z,36.85
2019-02-17T13:37:25.026Z,37.56
2019-02-17T13:40:33.067Z,36.68
2019-02-17T13:43:40.782Z,36.68
2019-02-17T13:46:49.089Z,36.48
2019-02-17T13:49:57.923Z,36.18
2019-02-17T13:53:11.786Z,36.66
2019-02-17T13:56:21.243Z,37.76
2019-02-17T13:59:29.958Z,36.71
2019-02-17T14:02:38.127Z,37.26
2019-02-17T14:05:46.140Z,36.89
2019-02-17T14:08:54.396Z,36.61
2019-02-17T14:12:02.402Z,37.27
2019-02-17T14:15:12.576Z,37.02
2019-02-17T14:18:21.614Z,37.90
2019-02-17T14:21:29.877Z,37.91
2019-02-17T14:24:37.493Z,38.13
2019-02-17T14:27:45.693Z,38.23
2019-02-17T14:30:54.007Z,39.00
2019-02-17T14:34:02.337Z,39.24
2019-02-17T14:37:10.516Z,38.75
2019-02-17T14:40:18.320Z,38.36
2019-02-17T14:43:27.770Z,38.09
2019-02-17T14:46:35.838Z,38.09
2019-02-17T14:49:43.741Z,37.72
2019-02-17T14:52:52.006Z,38.03
2019-02-17T14:59:15.845Z,38.13
2019-02-17T15:02:24.476Z,38.10
2019-02-17T15:05:32.002Z,37.98
2019-02-17T15:08:39.873Z,38.07
2019-02-17T15:11:47.327Z,39.32
2019-02-17T15:14:55.768Z,39.36
2019-02-17T15:18:03.679Z,41.33
2019-02-17T15:21:11.819Z,39.78
2019-02-17T15:24:19.197Z,40.25
2019-02-17T15:27:27.377Z,40.76
2019-02-17T15:30:35.250Z,40.90
2019-02-17T15:33:43.531Z,41.57
2019-02-17T15:36:51.023Z,41.67
2019-02-17T15:39:58.877Z,42.67
2019-02-17T15:43:06.653Z,42.38
2019-02-17T15:46:14.008Z,42.04
2019-02-17T15:49:21.637Z,42.54
2019-02-17T15:52:30.142Z,43.24
2019-02-17T15:55:38.314Z,43.49
2019-02-17T15:58:46.278Z,44.15
2019-02-17T16:01:54.460Z,45.54
2019-02-17T16:05:02.406Z,44.90
2019-02-17T16:08:10.487Z,45.96
2019-02-17T16:11:17.896Z,46.78
2019-02-17T16:14:25.782Z,47.68
2019-02-17T16:17:33.401Z,48.67
2019-02-17T16:20:41.494Z,49.08
2019-02-17T16:23:49.697Z,49.82
2019-02-17T16:26:57.348Z,50.60
2019-02-17T16:30:09.010Z,51.06
2019-02-17T16:33:16.735Z,51.35
2019-02-17T16:36:23.912Z,52.51
2019-02-17T16:39:32.102Z,54.80
2019-02-17T16:42:40.025Z,56.71
2019-02-17T16:45:47.668Z,56.46
2019-02-17T16:48:56.423Z,57.61
2019-02-17T16:52:03.886Z,58.34
2019-02-17T16:55:11.839Z,59.37
2019-02-17T16:58:19.523Z,60.80
2019-02-17T17:01:26.856Z,60.89
2019-02-17T17:04:34.120Z,62.00
2019-02-17T17:07:41.981Z,63.19
2019-02-17T17:10:50.292Z,63.50
2019-02-17T17:13:58.642Z,64.71
2019-02-17T17:17:06.106Z,65.34
2019-02-17T17:20:14.439Z,66.25
2019-02-17T17:23:22.504Z,67.02
2019-02-17T17:26:30.187Z,68.08
2019-02-17T17:29:37.368Z,68.91
2019-02-17T17:32:45.505Z,69.77
2019-02-17T17:35:52.699Z,70.21
2019-02-17T17:39:00.019Z,70.69
2019-02-17T17:42:07.859Z,70.55
2019-02-17T17:45:15.357Z,70.90
2019-02-17T17:48:22.943Z,70.51
2019-02-17T17:51:30.369Z,70.88
2019-02-17T17:54:37.764Z,71.01
2019-02-17T17:57:45.132Z,70.84
2019-02-17T18:00:52.841Z,71.42
2019-02-17T18:04:01.551Z,72.00
2019-02-17T18:07:09.637Z,72.08
2019-02-17T18:10:17.325Z,71.46
2019-02-17T18:13:24.676Z,71.62
2019-02-17T18:16:32.363Z,71.34
2019-02-17T18:19:40.515Z,72.12
2019-02-17T18:22:47.786Z,72.97
2019-02-17T18:25:56.096Z,73.47
2019-02-17T18:29:03.984Z,73.28
2019-02-17T18:32:11.291Z,73.44
2019-02-17T18:35:20.647Z,73.95
2019-02-17T18:38:29.239Z,73.83
2019-02-17T18:41:37.787Z,73.85
2019-02-17T18:44:46.008Z,74.29
2019-02-17T18:47:53.963Z,74.64
2019-02-17T18:51:01.902Z,74.97
2019-02-17T18:54:10.326Z,75.00
2019-02-17T18:57:17.729Z,74.57
2019-02-17T19:00:25.706Z,75.28
2019-02-17T19:03:34.211Z,75.34
2019-02-17T19:06:41.693Z,75.42
2019-02-17T19:09:49.589Z,75.35
2019-02-17T19:12:57.732Z,75.93
2019-02-17T19:16:05.841Z,75.49
2019-02-17T19:19:16.828Z,75.36
2019-02-17T19:22:24.468Z,75.99
2019-02-17T19:25:32.441Z,76.47
2019-02-17T19:28:41.356Z,76.62
2019-02-17T19:31:49.063Z,75.94
2019-02-17T19:34:56.807Z,77.49
2019-02-17T19:38:04.981Z,77.91
2019-02-17T19:41:12.893Z,78.22
2019-02-17T19:44:21.355Z,78.81
2019-02-17T19:47:28.890Z,78.94
2019-02-17T19:50:36.786Z,78.72
2019-02-17T19:53:44.826Z,79.16
2019-02-17T19:56:52.939Z,78.00
2019-02-17T20:00:00.694Z,78.38
2019-02-17T20:03:26.162Z,78.19
2019-02-17T20:06:34.147Z,78.06
2019-02-17T20:09:41.555Z,78.02
2019-02-17T20:12:49.973Z,77.88
2019-02-17T20:15:58.013Z,77.95
2019-02-17T20:19:06.048Z,78.07
2019-02-17T20:22:13.801Z,77.81
2019-02-17T20:25:21.787Z,77.84
2019-02-17T20:28:40.761Z,78.33
2019-02-17T20:31:38.804Z,78.64
2019-02-17T20:34:46.629Z,78.02
2019-02-17T20:37:55.289Z,77.48
2019-02-17T20:41:03.545Z,77.21
2019-02-17T20:44:11.815Z,77.27
2019-02-17T20:47:19.129Z,77.13
2019-02-17T20:50:27.418Z,76.97
2019-02-17T20:53:35.108Z,76.70
2019-02-17T20:56:42.843Z,76.21
2019-02-17T20:59:51.274Z,77.80
2019-02-17T21:02:59.016Z,78.07
2019-02-17T21:06:12.717Z,78.22
2019-02-17T21:09:17.639Z,79.02
2019-02-17T21:12:25.397Z,78.61
2019-02-17T21:15:33.099Z,78.64
2019-02-17T21:18:40.537Z,78.81
2019-02-17T21:21:47.984Z,77.66
2019-02-17T21:24:56.179Z,77.11
2019-02-17T21:28:03.508Z,77.71
2019-02-17T21:31:11.699Z,77.15
2019-02-17T21:34:19.139Z,76.03
2019-02-17T21:37:27.330Z,74.49
2019-02-17T21:40:35.908Z,75.51
2019-02-17T21:43:44.187Z,75.85
2019-02-17T21:46:51.516Z,77.27
2019-02-17T21:49:59.412Z,78.07
2019-02-17T21:53:10.383Z,78.53
2019-02-17T21:56:17.442Z,78.77
2019-02-17T21:59:25.530Z,80.07
2019-02-17T22:02:33.311Z,80.23
2019-02-17T22:05:40.883Z,80.18
2019-02-17T22:08:48.597Z,79.63
2019-02-17T22:11:56.787Z,77.97
2019-02-17T22:15:06.200Z,77.40
2019-02-17T22:18:14.274Z,77.75
2019-02-17T22:21:22.126Z,78.84
2019-02-17T22:24:29.619Z,78.62
2019-02-17T22:27:37.244Z,76.87
2019-02-17T22:30:44.875Z,76.43
2019-02-17T22:33:53.102Z,77.32
2019-02-17T22:37:01.864Z,77.44
2019-02-17T22:40:09.633Z,77.61
2019-02-17T22:43:17.369Z,77.70
2019-02-17T22:46:24.719Z,77.47
2019-02-17T22:49:32.820Z,77.40
2019-02-17T22:52:40.520Z,77.11
2019-02-17T22:55:48.220Z,77.36
2019-02-17T22:58:55.912Z,77.58
2019-02-17T23:02:05.164Z,78.17
2019-02-17T23:05:12.857Z,78.11
2019-02-17T23:08:20.626Z,77.38
2019-02-17T23:11:28.470Z,76.94
2019-02-17T23:14:36.350Z,76.33
2019-02-17T23:17:44.895Z,75.96
2019-02-17T23:20:52.195Z,75.95
2019-02-17T23:24:00.680Z,74.90
2019-02-17T23:27:08.096Z,74.97
2019-02-17T23:30:15.800Z,75.50
2019-02-17T23:33:23.308Z,76.13
2019-02-17T23:36:30.697Z,75.97
2019-02-17T23:39:37.878Z,75.41
2019-02-17T23:42:45.792Z,75.16
2019-02-17T23:45:53.391Z,74.94
2019-02-17T23:49:00.686Z,74.78
2019-02-17T23:52:08.381Z,74.18
2019-02-17T23:55:15.778Z,74.45
2019-02-17T23:58:23.410Z,74.54
